Kakusyunmaru — JL6732 — position and weather

sailwx.info

Track history (hours):
 
Tides and Currents Weather Stations Pressure Air Temp Water Temp Dewpoint Dewpoint Depression Visibility Wind Speed Wind Dir Waves Ship Positions

Kakusyunmaru

Last reported at 2018-Jul-23 07:46 UTC. Time now 2018-Jul-23 11:33 UTC.
Position N 35°32' E 139°60'.

Length 103 m; draft 4.9 m.

Type: Tanker. MMSI: 431501785.

Date/timePositionNaut miles runAvg speedWind from/ knotsBaromVisibWave heightAir tempDewpointWater temp
2018-Jul-23 07:46N 35°32' E 139°60'413.3
2018-Jul-23 07:30N 35°30' E 139°56'612.9
2018-Jul-23 07:00N 35°27' E 139°49'612.7
2018-Jul-23 06:30N 35°21' E 139°45'611.6
2018-Jul-23 06:00N 35°16' E 139°47'713.0
2018-Jul-23 05:30N 35°09' E 139°47'713.4
2018-Jul-23 05:00N 35°03' E 139°43'714.2
2018-Jul-23 04:29N 34°58' E 139°36'715.6
2018-Jul-23 04:01N 34°55' E 139°28'22512.2
2018-Jul-22 09:37N 33°42' E 135°10'413.7
2018-Jul-22 09:18N 33°46' E 135°07'413.3
2018-Jul-22 09:00N 33°49' E 135°04'612.2
2018-Jul-22 08:30N 33°54' E 135°00'611.8
2018-Jul-22 08:00N 33°60' E 134°60'611.6
2018-Jul-22 07:30N 34°06' E 134°59'612.1
2018-Jul-22 07:01N 34°12' E 134°59'612.3
2018-Jul-22 06:30N 34°18' E 134°59'611.5
2018-Jul-22 06:00N 34°23' E 135°01'612.7
2018-Jul-22 05:30N 34°27' E 135°07'712.8
2018-Jul-22 05:00N 34°31' E 135°14'612.6
2018-Jul-22 04:30N 34°35' E 135°19'5 9.8
2018-Jul-22 04:00N 34°35' E 135°25'1 1.4
2018-Jul-22 03:30N 34°35' E 135°26'0 0.0
2018-Jul-22 03:00N 34°35' E 135°26'0 0.0
2018-Jul-22 02:30N 34°35' E 135°26'0 0.0
2018-Jul-22 02:00N 34°35' E 135°26'0 0.1
2018-Jul-22 01:30N 34°35' E 135°26'0 0.1
2018-Jul-22 01:00N 34°35' E 135°26'0 0.0
2018-Jul-22 00:30N 34°35' E 135°26'0 0.0
2018-Jul-22 00:00N 34°35' E 135°26'0 0.1
2018-Jul-21 23:30N 34°35' E 135°26'0 0.1
2018-Jul-21 22:59N 34°35' E 135°26'0 0.4
2018-Jul-21 22:30N 34°35' E 135°25'2 4.6
2018-Jul-21 22:00N 34°36' E 135°24'1 1.8
2018-Jul-21 21:25N 34°36' E 135°23'0 0.1
2018-Jul-21 21:00N 34°36' E 135°23'0 0.0
2018-Jul-21 20:30N 34°36' E 135°23'0 0.0
2018-Jul-21 20:00N 34°36' E 135°23'0 0.0
2018-Jul-21 19:30N 34°36' E 135°23'2 4.6
2018-Jul-21 18:58N 34°34' E 135°21'4 8.0
2018-Jul-21 18:30N 34°33' E 135°25'0 0.8
2018-Jul-21 18:00N 34°33' E 135°26'0 0.0
2018-Jul-21 17:30N 34°33' E 135°26'0 0.0
2018-Jul-21 17:00N 34°33' E 135°26'0 0.0
2018-Jul-21 16:30N 34°33' E 135°26'0 0.0
2018-Jul-21 16:00N 34°33' E 135°26'0 0.0
2018-Jul-21 15:30N 34°33' E 135°26'0 0.0
2018-Jul-21 14:57N 34°33' E 135°26'0 0.1
2018-Jul-21 14:30N 34°33' E 135°26'0 0.0
2018-Jul-21 13:30N 34°33' E 135°26'0 0.0
2018-Jul-21 13:00N 34°33' E 135°26'0 0.0
2018-Jul-21 12:30N 34°33' E 135°26'0 0.0
2018-Jul-21 12:00N 34°33' E 135°26'0 0.0
2018-Jul-21 11:30N 34°33' E 135°26'0 0.0
2018-Jul-21 10:59N 34°33' E 135°26'0 0.0
2018-Jul-21 10:30N 34°33' E 135°26'0 0.0
2018-Jul-21 10:00N 34°33' E 135°26'0 0.0
2018-Jul-21 09:30N 34°33' E 135°26'0 0.0
2018-Jul-21 09:00N 34°33' E 135°26'0 0.9
2018-Jul-21 08:30N 34°33' E 135°25'1 2.5
2018-Jul-21 08:00N 34°33' E 135°24'4 8.2
2018-Jul-21 07:30N 34°33' E 135°19'0 0.0
2018-Jul-21 07:00N 34°33' E 135°19'0 0.0
2018-Jul-21 06:30N 34°33' E 135°19'0 0.1
2018-Jul-21 06:00N 34°33' E 135°19'0 0.1
2018-Jul-21 05:28N 34°33' E 135°19'4 8.6
2018-Jul-21 05:00N 34°36' E 135°22'3 6.5
2018-Jul-21 04:30N 34°35' E 135°26'0 0.1
2018-Jul-21 04:00N 34°35' E 135°26'0 0.1
2018-Jul-21 03:30N 34°35' E 135°26'0 0.1
2018-Jul-21 03:00N 34°35' E 135°26'0 0.0
2018-Jul-21 02:30N 34°35' E 135°26'0 0.0
2018-Jul-21 02:00N 34°35' E 135°26'0 0.0
2018-Jul-21 01:30N 34°35' E 135°26'0 0.0
2018-Jul-21 01:00N 34°35' E 135°26'0 0.0
2018-Jul-21 00:30N 34°35' E 135°26'0 0.0
2018-Jul-21 00:00N 34°35' E 135°26'0 0.0
2018-Jul-20 23:30N 34°35' E 135°26'0 0.0
2018-Jul-20 23:00N 34°35' E 135°26'0 0.4
2018-Jul-20 22:30N 34°35' E 135°25'2 4.6
2018-Jul-20 22:00N 34°36' E 135°24'1 2.1
2018-Jul-20 21:30N 34°36' E 135°23'0 0.0
2018-Jul-20 21:00N 34°36' E 135°23'0 0.0
2018-Jul-20 20:30N 34°36' E 135°23'0 0.0
2018-Jul-20 20:00N 34°36' E 135°23'0 0.1
2018-Jul-20 19:30N 34°36' E 135°23'0 0.1
2018-Jul-20 19:00N 34°36' E 135°23'0 0.0
2018-Jul-20 18:30N 34°36' E 135°23'0 0.0
2018-Jul-20 18:00N 34°36' E 135°23'0 0.0
2018-Jul-20 17:28N 34°36' E 135°23'0 0.0
2018-Jul-20 17:00N 34°36' E 135°23'0 0.0
2018-Jul-20 16:30N 34°36' E 135°23'0 0.0
2018-Jul-20 16:00N 34°36' E 135°23'0 0.0
2018-Jul-20 15:30N 34°36' E 135°23'0 0.1
2018-Jul-20 15:00N 34°36' E 135°22'0 0.0
2018-Jul-20 14:30N 34°36' E 135°22'0 0.1
2018-Jul-20 14:00N 34°36' E 135°22'0 0.1
2018-Jul-20 13:30N 34°36' E 135°22'0 0.1
2018-Jul-20 13:00N 34°36' E 135°23'0 0.1
2018-Jul-20 12:30N 34°36' E 135°23'0 0.0
2018-Jul-20 11:58N 34°36' E 135°23'0 0.0
2018-Jul-20 11:29N 34°36' E 135°23'3 6.9
2018-Jul-20 11:00N 34°34' E 135°19'612.5
2018-Jul-20 10:30N 34°29' E 135°14'612.5
2018-Jul-20 10:00N 34°25' E 135°08'612.6
2018-Jul-20 09:30N 34°21' E 135°03'611.5
2018-Jul-20 09:00N 34°16' E 134°59'612.5
2018-Jul-20 08:30N 34°09' E 134°60'713.5
2018-Jul-20 08:00N 34°03' E 134°60'713.3
2018-Jul-20 07:30N 33°56' E 135°00'612.5
2018-Jul-20 07:00N 33°50' E 135°03'22411.1
2018-Jul-19 10:47N 34°54' E 139°23'3 9.5
2018-Jul-19 10:26N 34°56' E 139°26'4 9.3
2018-Jul-19 10:00N 34°58' E 139°30'510.8
2018-Jul-19 09:30N 35°02' E 139°36'612.2
2018-Jul-19 09:00N 35°06' E 139°41'612.1
2018-Jul-19 08:30N 35°11' E 139°45'611.4
2018-Jul-19 08:00N 35°16' E 139°45'611.9
2018-Jul-19 07:30N 35°22' E 139°42'611.4
2018-Jul-19 07:00N 35°26' E 139°46'611.9
2018-Jul-19 06:30N 35°30' E 139°52'611.8
2018-Jul-19 06:00N 35°31' E 139°59'3 6.7
2018-Jul-19 05:30N 35°32' E 140°03'0 0.0
2018-Jul-19 04:58N 35°32' E 140°03'0 0.0
2018-Jul-19 04:29N 35°32' E 140°03'0 0.0
2018-Jul-19 03:23N 35°32' E 140°03'0 0.0
2018-Jul-19 02:49N 35°32' E 140°03'0 0.0
2018-Jul-19 02:29N 35°32' E 140°03'0 0.0
2018-Jul-19 01:11N 35°32' E 140°03'0 0.0
2018-Jul-19 00:39N 35°32' E 140°03'0 0.0
2018-Jul-19 00:27N 35°32' E 140°03'0 0.5
2018-Jul-18 23:51N 35°32' E 140°03'1 0.5
2018-Jul-18 21:40N 35°32' E 140°02'0 0.0
2018-Jul-18 21:29N 35°32' E 140°02'0 0.0
2018-Jul-18 11:25N 35°32' E 140°02'0 0.0
2018-Jul-18 10:30N 35°32' E 140°02'0 0.0
2018-Jul-18 10:00N 35°32' E 140°02'0 0.0
2018-Jul-18 09:30N 35°32' E 140°02'0 0.0
2018-Jul-18 09:00N 35°32' E 140°02'0 0.0
2018-Jul-18 08:30N 35°32' E 140°02'2 4.6
2018-Jul-18 08:00N 35°32' E 139°59'713.5
2018-Jul-18 07:30N 35°29' E 139°52'713.9
2018-Jul-18 07:01N 35°24' E 139°46'612.4
2018-Jul-18 06:30N 35°17' E 139°45'613.0
2018-Jul-18 06:00N 35°11' E 139°47'713.1
2018-Jul-18 05:30N 35°05' E 139°44'713.2
2018-Jul-18 05:00N 35°00' E 139°39'814.5
2018-Jul-18 04:29N 34°56' E 139°31'22812.5
2018-Jul-17 10:14N 33°43' E 135°10'313.0
2018-Jul-17 09:58N 33°46' E 135°07'612.2
2018-Jul-17 09:30N 33°50' E 135°03'612.4
2018-Jul-17 09:00N 33°56' E 135°00'613.1
2018-Jul-17 08:30N 34°02' E 134°59'713.3
2018-Jul-17 08:00N 34°09' E 134°59'815.2
2018-Jul-17 07:31N 34°16' E 134°59'713.6
2018-Jul-17 07:01N 34°23' E 135°01'713.9
2018-Jul-17 06:30N 34°27' E 135°08'713.5
2018-Jul-17 06:00N 34°31' E 135°14'612.6
2018-Jul-17 05:30N 34°35' E 135°20'4 8.4
2018-Jul-17 05:00N 34°35' E 135°26'0 0.5
2018-Jul-17 04:30N 34°35' E 135°26'0 0.1
2018-Jul-17 04:00N 34°35' E 135°26'0 0.1
2018-Jul-17 03:30N 34°35' E 135°26'0 0.0
2018-Jul-17 03:00N 34°35' E 135°26'0 0.1
2018-Jul-17 02:30N 34°35' E 135°26'0 0.1
2018-Jul-17 02:00N 34°35' E 135°26'0 0.0
2018-Jul-17 01:30N 34°35' E 135°26'0 0.0
2018-Jul-17 01:00N 34°35' E 135°26'0 0.0
2018-Jul-17 00:30N 34°35' E 135°26'0 0.0
2018-Jul-16 23:30N 34°35' E 135°26'0 0.0
2018-Jul-16 23:00N 34°35' E 135°26'0 0.2
2018-Jul-16 22:30N 34°35' E 135°26'2 4.9
2018-Jul-16 22:00N 34°36' E 135°23'1 2.6
2018-Jul-16 21:28N 34°36' E 135°22'0 0.0
2018-Jul-16 21:00N 34°36' E 135°22'0 0.0
2018-Jul-16 20:30N 34°36' E 135°22'0 0.0
2018-Jul-16 20:00N 34°36' E 135°22'0 0.0
2018-Jul-16 19:30N 34°36' E 135°22'0 0.0
2018-Jul-16 19:00N 34°36' E 135°22'0 0.1
2018-Jul-16 18:30N 34°36' E 135°22'0 0.0
2018-Jul-16 18:00N 34°36' E 135°22'0 0.0
2018-Jul-16 17:30N 34°36' E 135°22'0 0.1
2018-Jul-16 17:00N 34°36' E 135°22'0 0.1
2018-Jul-16 16:30N 34°36' E 135°22'0 0.0
2018-Jul-16 16:00N 34°36' E 135°22'0 0.1
2018-Jul-16 15:30N 34°36' E 135°22'0 0.0
2018-Jul-16 15:00N 34°36' E 135°22'0 0.0
2018-Jul-16 14:30N 34°36' E 135°22'0 0.0
2018-Jul-16 14:00N 34°36' E 135°22'0 0.0
2018-Jul-16 13:30N 34°36' E 135°22'0 0.0
2018-Jul-16 13:00N 34°36' E 135°22'0 0.0
2018-Jul-16 12:30N 34°36' E 135°22'0 0.0
2018-Jul-16 12:00N 34°36' E 135°22'0 0.0
2018-Jul-16 11:30N 34°36' E 135°22'0 0.0
2018-Jul-16 11:00N 34°36' E 135°22'0 0.0
2018-Jul-16 10:31N 34°36' E 135°22'0 0.0
2018-Jul-16 10:01N 34°36' E 135°22'0 0.0
2018-Jul-16 09:30N 34°36' E 135°22'0 0.1
2018-Jul-16 09:00N 34°36' E 135°22'3 6.6
2018-Jul-16 08:30N 34°33' E 135°19'612.2
2018-Jul-16 08:00N 34°29' E 135°14'611.5
2018-Jul-16 07:30N 34°25' E 135°09'611.4
2018-Jul-16 07:00N 34°21' E 135°04'510.7
2018-Jul-16 06:30N 34°17' E 134°59'5 9.3
2018-Jul-16 06:00N 34°13' E 134°59'612.4
2018-Jul-16 05:30N 34°06' E 134°60'612.1
2018-Jul-16 05:00N 34°00' E 135°00'611.6
2018-Jul-16 04:30N 33°55' E 135°01'15 0.4
2018-Jul-14 16:00N 33°42' E 135°10'714.3
2018-Jul-14 15:29N 33°48' E 135°05'713.9
2018-Jul-14 15:00N 33°54' E 135°01'714.6
2018-Jul-14 14:30N 34°01' E 135°00'1312.9
2018-Jul-14 13:30N 34°14' E 134°59'510.8
2018-Jul-14 13:00N 34°19' E 134°59'510.2
2018-Jul-14 12:30N 34°24' E 135°02'612.5
2018-Jul-14 12:00N 34°27' E 135°08'612.9
2018-Jul-14 11:30N 34°31' E 135°15'612.6
2018-Jul-14 11:00N 34°35' E 135°21'4 8.1
2018-Jul-14 10:30N 34°35' E 135°26'0 0.5
2018-Jul-14 10:00N 34°35' E 135°26'0 0.0
2018-Jul-14 09:30N 34°35' E 135°26'0 0.0
2018-Jul-14 09:00N 34°35' E 135°26'0 0.0
2018-Jul-14 08:28N 34°35' E 135°26'0 0.0
2018-Jul-14 08:00N 34°35' E 135°26'0 0.0
2018-Jul-14 07:30N 34°35' E 135°26'0 0.0
2018-Jul-14 07:00N 34°35' E 135°26'0 0.0
2018-Jul-14 06:30N 34°35' E 135°26'0 0.0
2018-Jul-14 06:00N 34°35' E 135°26'0 0.0
2018-Jul-14 05:30N 34°35' E 135°26'0 0.0
2018-Jul-14 05:00N 34°35' E 135°26'2 4.1
2018-Jul-14 04:30N 34°36' E 135°24'2 3.8
2018-Jul-14 04:00N 34°36' E 135°22'0 0.1
2018-Jul-14 03:29N 34°36' E 135°22'0 0.1
2018-Jul-14 03:00N 34°36' E 135°22'0 0.0
2018-Jul-14 02:30N 34°36' E 135°22'0 0.0
2018-Jul-14 02:00N 34°36' E 135°22'0 0.0
2018-Jul-14 01:30N 34°36' E 135°22'0 0.0
2018-Jul-14 01:00N 34°36' E 135°22'3 6.3
2018-Jul-14 00:30N 34°34' E 135°18'611.7
2018-Jul-14 00:00N 34°30' E 135°13'611.6
2018-Jul-13 23:30N 34°26' E 135°09'611.9
2018-Jul-13 23:00N 34°22' E 135°04'612.3
2018-Jul-13 22:30N 34°17' E 134°59'612.9
2018-Jul-13 22:00N 34°10' E 134°59'612.6
2018-Jul-13 21:30N 34°04' E 134°59'612.0
2018-Jul-13 21:00N 33°58' E 135°00'611.7
2018-Jul-13 20:30N 33°52' E 135°01'  
Track history (hours):
 
Tides and Currents Weather Stations Pressure Air Temp Water Temp Dewpoint Dewpoint Depression Visibility Wind Speed Wind Dir Waves Ship Positions

Kakusyunmaru

Last reported at 2018-Jul-23 07:46 UTC. Time now 2018-Jul-23 11:33 UTC.
Position N 35°32' E 139°60'.

Length 103 m; draft 4.9 m.

Type: Tanker. MMSI: 431501785.

Date/timePositionNaut miles runAvg speedWind from/ knotsBaromVisibWave heightAir tempDewpointWater temp
2018-Jul-23 07:46N 35°32' E 139°60'413.3
2018-Jul-23 07:30N 35°30' E 139°56'612.9
2018-Jul-23 07:00N 35°27' E 139°49'612.7
2018-Jul-23 06:30N 35°21' E 139°45'611.6
2018-Jul-23 06:00N 35°16' E 139°47'713.0
2018-Jul-23 05:30N 35°09' E 139°47'713.4
2018-Jul-23 05:00N 35°03' E 139°43'714.2
2018-Jul-23 04:29N 34°58' E 139°36'715.6
2018-Jul-23 04:01N 34°55' E 139°28'22512.2
2018-Jul-22 09:37N 33°42' E 135°10'413.7
2018-Jul-22 09:18N 33°46' E 135°07'413.3
2018-Jul-22 09:00N 33°49' E 135°04'612.2
2018-Jul-22 08:30N 33°54' E 135°00'611.8
2018-Jul-22 08:00N 33°60' E 134°60'611.6
2018-Jul-22 07:30N 34°06' E 134°59'612.1
2018-Jul-22 07:01N 34°12' E 134°59'612.3
2018-Jul-22 06:30N 34°18' E 134°59'611.5
2018-Jul-22 06:00N 34°23' E 135°01'612.7
2018-Jul-22 05:30N 34°27' E 135°07'712.8
2018-Jul-22 05:00N 34°31' E 135°14'612.6
2018-Jul-22 04:30N 34°35' E 135°19'5 9.8
2018-Jul-22 04:00N 34°35' E 135°25'1 1.4
2018-Jul-22 03:30N 34°35' E 135°26'0 0.0
2018-Jul-22 03:00N 34°35' E 135°26'0 0.0
2018-Jul-22 02:30N 34°35' E 135°26'0 0.0
2018-Jul-22 02:00N 34°35' E 135°26'0 0.1
2018-Jul-22 01:30N 34°35' E 135°26'0 0.1
2018-Jul-22 01:00N 34°35' E 135°26'0 0.0
2018-Jul-22 00:30N 34°35' E 135°26'0 0.0
2018-Jul-22 00:00N 34°35' E 135°26'0 0.1
2018-Jul-21 23:30N 34°35' E 135°26'0 0.1
2018-Jul-21 22:59N 34°35' E 135°26'0 0.4
2018-Jul-21 22:30N 34°35' E 135°25'2 4.6
2018-Jul-21 22:00N 34°36' E 135°24'1 1.8
2018-Jul-21 21:25N 34°36' E 135°23'0 0.1
2018-Jul-21 21:00N 34°36' E 135°23'0 0.0
2018-Jul-21 20:30N 34°36' E 135°23'0 0.0
2018-Jul-21 20:00N 34°36' E 135°23'0 0.0
2018-Jul-21 19:30N 34°36' E 135°23'2 4.6
2018-Jul-21 18:58N 34°34' E 135°21'4 8.0
2018-Jul-21 18:30N 34°33' E 135°25'0 0.8
2018-Jul-21 18:00N 34°33' E 135°26'0 0.0
2018-Jul-21 17:30N 34°33' E 135°26'0 0.0
2018-Jul-21 17:00N 34°33' E 135°26'0 0.0
2018-Jul-21 16:30N 34°33' E 135°26'0 0.0
2018-Jul-21 16:00N 34°33' E 135°26'0 0.0
2018-Jul-21 15:30N 34°33' E 135°26'0 0.0
2018-Jul-21 14:57N 34°33' E 135°26'0 0.1
2018-Jul-21 14:30N 34°33' E 135°26'0 0.0
2018-Jul-21 13:30N 34°33' E 135°26'0 0.0
2018-Jul-21 13:00N 34°33' E 135°26'0 0.0
2018-Jul-21 12:30N 34°33' E 135°26'0 0.0
2018-Jul-21 12:00N 34°33' E 135°26'0 0.0
2018-Jul-21 11:30N 34°33' E 135°26'0 0.0
2018-Jul-21 10:59N 34°33' E 135°26'0 0.0
2018-Jul-21 10:30N 34°33' E 135°26'0 0.0
2018-Jul-21 10:00N 34°33' E 135°26'0 0.0
2018-Jul-21 09:30N 34°33' E 135°26'0 0.0
2018-Jul-21 09:00N 34°33' E 135°26'0 0.9
2018-Jul-21 08:30N 34°33' E 135°25'1 2.5
2018-Jul-21 08:00N 34°33' E 135°24'4 8.2
2018-Jul-21 07:30N 34°33' E 135°19'0 0.0
2018-Jul-21 07:00N 34°33' E 135°19'0 0.0
2018-Jul-21 06:30N 34°33' E 135°19'0 0.1
2018-Jul-21 06:00N 34°33' E 135°19'0 0.1
2018-Jul-21 05:28N 34°33' E 135°19'4 8.6
2018-Jul-21 05:00N 34°36' E 135°22'3 6.5
2018-Jul-21 04:30N 34°35' E 135°26'0 0.1
2018-Jul-21 04:00N 34°35' E 135°26'0 0.1
2018-Jul-21 03:30N 34°35' E 135°26'0 0.1
2018-Jul-21 03:00N 34°35' E 135°26'0 0.0
2018-Jul-21 02:30N 34°35' E 135°26'0 0.0
2018-Jul-21 02:00N 34°35' E 135°26'0 0.0
2018-Jul-21 01:30N 34°35' E 135°26'0 0.0
2018-Jul-21 01:00N 34°35' E 135°26'0 0.0
2018-Jul-21 00:30N 34°35' E 135°26'0 0.0
2018-Jul-21 00:00N 34°35' E 135°26'0 0.0
2018-Jul-20 23:30N 34°35' E 135°26'0 0.0
2018-Jul-20 23:00N 34°35' E 135°26'0 0.4
2018-Jul-20 22:30N 34°35' E 135°25'2 4.6
2018-Jul-20 22:00N 34°36' E 135°24'1 2.1
2018-Jul-20 21:30N 34°36' E 135°23'0 0.0
2018-Jul-20 21:00N 34°36' E 135°23'0 0.0
2018-Jul-20 20:30N 34°36' E 135°23'0 0.0
2018-Jul-20 20:00N 34°36' E 135°23'0 0.1
2018-Jul-20 19:30N 34°36' E 135°23'0 0.1
2018-Jul-20 19:00N 34°36' E 135°23'0 0.0
2018-Jul-20 18:30N 34°36' E 135°23'0 0.0
2018-Jul-20 18:00N 34°36' E 135°23'0 0.0
2018-Jul-20 17:28N 34°36' E 135°23'0 0.0
2018-Jul-20 17:00N 34°36' E 135°23'0 0.0
2018-Jul-20 16:30N 34°36' E 135°23'0 0.0
2018-Jul-20 16:00N 34°36' E 135°23'0 0.0
2018-Jul-20 15:30N 34°36' E 135°23'0 0.1
2018-Jul-20 15:00N 34°36' E 135°22'0 0.0
2018-Jul-20 14:30N 34°36' E 135°22'0 0.1
2018-Jul-20 14:00N 34°36' E 135°22'0 0.1
2018-Jul-20 13:30N 34°36' E 135°22'0 0.1
2018-Jul-20 13:00N 34°36' E 135°23'0 0.1
2018-Jul-20 12:30N 34°36' E 135°23'0 0.0
2018-Jul-20 11:58N 34°36' E 135°23'0 0.0
2018-Jul-20 11:29N 34°36' E 135°23'3 6.9
2018-Jul-20 11:00N 34°34' E 135°19'612.5
2018-Jul-20 10:30N 34°29' E 135°14'612.5
2018-Jul-20 10:00N 34°25' E 135°08'612.6
2018-Jul-20 09:30N 34°21' E 135°03'611.5
2018-Jul-20 09:00N 34°16' E 134°59'612.5
2018-Jul-20 08:30N 34°09' E 134°60'713.5
2018-Jul-20 08:00N 34°03' E 134°60'713.3
2018-Jul-20 07:30N 33°56' E 135°00'612.5
2018-Jul-20 07:00N 33°50' E 135°03'22411.1
2018-Jul-19 10:47N 34°54' E 139°23'3 9.5
2018-Jul-19 10:26N 34°56' E 139°26'4 9.3
2018-Jul-19 10:00N 34°58' E 139°30'510.8
2018-Jul-19 09:30N 35°02' E 139°36'612.2
2018-Jul-19 09:00N 35°06' E 139°41'612.1
2018-Jul-19 08:30N 35°11' E 139°45'611.4
2018-Jul-19 08:00N 35°16' E 139°45'611.9
2018-Jul-19 07:30N 35°22' E 139°42'611.4
2018-Jul-19 07:00N 35°26' E 139°46'611.9
2018-Jul-19 06:30N 35°30' E 139°52'611.8
2018-Jul-19 06:00N 35°31' E 139°59'3 6.7
2018-Jul-19 05:30N 35°32' E 140°03'0 0.0
2018-Jul-19 04:58N 35°32' E 140°03'0 0.0
2018-Jul-19 04:29N 35°32' E 140°03'0 0.0
2018-Jul-19 03:23N 35°32' E 140°03'0 0.0
2018-Jul-19 02:49N 35°32' E 140°03'0 0.0
2018-Jul-19 02:29N 35°32' E 140°03'0 0.0
2018-Jul-19 01:11N 35°32' E 140°03'0 0.0
2018-Jul-19 00:39N 35°32' E 140°03'0 0.0
2018-Jul-19 00:27N 35°32' E 140°03'0 0.5
2018-Jul-18 23:51N 35°32' E 140°03'1 0.5
2018-Jul-18 21:40N 35°32' E 140°02'0 0.0
2018-Jul-18 21:29N 35°32' E 140°02'0 0.0
2018-Jul-18 11:25N 35°32' E 140°02'0 0.0
2018-Jul-18 10:30N 35°32' E 140°02'0 0.0
2018-Jul-18 10:00N 35°32' E 140°02'0 0.0
2018-Jul-18 09:30N 35°32' E 140°02'0 0.0
2018-Jul-18 09:00N 35°32' E 140°02'0 0.0
2018-Jul-18 08:30N 35°32' E 140°02'2 4.6
2018-Jul-18 08:00N 35°32' E 139°59'713.5
2018-Jul-18 07:30N 35°29' E 139°52'713.9
2018-Jul-18 07:01N 35°24' E 139°46'612.4
2018-Jul-18 06:30N 35°17' E 139°45'613.0
2018-Jul-18 06:00N 35°11' E 139°47'713.1
2018-Jul-18 05:30N 35°05' E 139°44'713.2
2018-Jul-18 05:00N 35°00' E 139°39'814.5
2018-Jul-18 04:29N 34°56' E 139°31'22812.5
2018-Jul-17 10:14N 33°43' E 135°10'313.0
2018-Jul-17 09:58N 33°46' E 135°07'612.2
2018-Jul-17 09:30N 33°50' E 135°03'612.4
2018-Jul-17 09:00N 33°56' E 135°00'613.1
2018-Jul-17 08:30N 34°02' E 134°59'713.3
2018-Jul-17 08:00N 34°09' E 134°59'815.2
2018-Jul-17 07:31N 34°16' E 134°59'713.6
2018-Jul-17 07:01N 34°23' E 135°01'713.9
2018-Jul-17 06:30N 34°27' E 135°08'713.5
2018-Jul-17 06:00N 34°31' E 135°14'612.6
2018-Jul-17 05:30N 34°35' E 135°20'4 8.4
2018-Jul-17 05:00N 34°35' E 135°26'0 0.5
2018-Jul-17 04:30N 34°35' E 135°26'0 0.1
2018-Jul-17 04:00N 34°35' E 135°26'0 0.1
2018-Jul-17 03:30N 34°35' E 135°26'0 0.0
2018-Jul-17 03:00N 34°35' E 135°26'0 0.1
2018-Jul-17 02:30N 34°35' E 135°26'0 0.1
2018-Jul-17 02:00N 34°35' E 135°26'0 0.0
2018-Jul-17 01:30N 34°35' E 135°26'0 0.0
2018-Jul-17 01:00N 34°35' E 135°26'0 0.0
2018-Jul-17 00:30N 34°35' E 135°26'0 0.0
2018-Jul-16 23:30N 34°35' E 135°26'0 0.0
2018-Jul-16 23:00N 34°35' E 135°26'0 0.2
2018-Jul-16 22:30N 34°35' E 135°26'2 4.9
2018-Jul-16 22:00N 34°36' E 135°23'1 2.6
2018-Jul-16 21:28N 34°36' E 135°22'0 0.0
2018-Jul-16 21:00N 34°36' E 135°22'0 0.0
2018-Jul-16 20:30N 34°36' E 135°22'0 0.0
2018-Jul-16 20:00N 34°36' E 135°22'0 0.0
2018-Jul-16 19:30N 34°36' E 135°22'0 0.0
2018-Jul-16 19:00N 34°36' E 135°22'0 0.1
2018-Jul-16 18:30N 34°36' E 135°22'0 0.0
2018-Jul-16 18:00N 34°36' E 135°22'0 0.0
2018-Jul-16 17:30N 34°36' E 135°22'0 0.1
2018-Jul-16 17:00N 34°36' E 135°22'0 0.1
2018-Jul-16 16:30N 34°36' E 135°22'0 0.0
2018-Jul-16 16:00N 34°36' E 135°22'0 0.1
2018-Jul-16 15:30N 34°36' E 135°22'0 0.0
2018-Jul-16 15:00N 34°36' E 135°22'0 0.0
2018-Jul-16 14:30N 34°36' E 135°22'0 0.0
2018-Jul-16 14:00N 34°36' E 135°22'0 0.0
2018-Jul-16 13:30N 34°36' E 135°22'0 0.0
2018-Jul-16 13:00N 34°36' E 135°22'0 0.0
2018-Jul-16 12:30N 34°36' E 135°22'0 0.0
2018-Jul-16 12:00N 34°36' E 135°22'0 0.0
2018-Jul-16 11:30N 34°36' E 135°22'0 0.0
2018-Jul-16 11:00N 34°36' E 135°22'0 0.0
2018-Jul-16 10:31N 34°36' E 135°22'0 0.0
2018-Jul-16 10:01N 34°36' E 135°22'0 0.0
2018-Jul-16 09:30N 34°36' E 135°22'0 0.1
2018-Jul-16 09:00N 34°36' E 135°22'3 6.6
2018-Jul-16 08:30N 34°33' E 135°19'612.2
2018-Jul-16 08:00N 34°29' E 135°14'611.5
2018-Jul-16 07:30N 34°25' E 135°09'611.4
2018-Jul-16 07:00N 34°21' E 135°04'510.7
2018-Jul-16 06:30N 34°17' E 134°59'5 9.3
2018-Jul-16 06:00N 34°13' E 134°59'612.4
2018-Jul-16 05:30N 34°06' E 134°60'612.1
2018-Jul-16 05:00N 34°00' E 135°00'611.6
2018-Jul-16 04:30N 33°55' E 135°01'15 0.4
2018-Jul-14 16:00N 33°42' E 135°10'714.3
2018-Jul-14 15:29N 33°48' E 135°05'713.9
2018-Jul-14 15:00N 33°54' E 135°01'714.6
2018-Jul-14 14:30N 34°01' E 135°00'1312.9
2018-Jul-14 13:30N 34°14' E 134°59'510.8
2018-Jul-14 13:00N 34°19' E 134°59'510.2
2018-Jul-14 12:30N 34°24' E 135°02'612.5
2018-Jul-14 12:00N 34°27' E 135°08'612.9
2018-Jul-14 11:30N 34°31' E 135°15'612.6
2018-Jul-14 11:00N 34°35' E 135°21'4 8.1
2018-Jul-14 10:30N 34°35' E 135°26'0 0.5
2018-Jul-14 10:00N 34°35' E 135°26'0 0.0
2018-Jul-14 09:30N 34°35' E 135°26'0 0.0
2018-Jul-14 09:00N 34°35' E 135°26'0 0.0
2018-Jul-14 08:28N 34°35' E 135°26'0 0.0
2018-Jul-14 08:00N 34°35' E 135°26'0 0.0
2018-Jul-14 07:30N 34°35' E 135°26'0 0.0
2018-Jul-14 07:00N 34°35' E 135°26'0 0.0
2018-Jul-14 06:30N 34°35' E 135°26'0 0.0
2018-Jul-14 06:00N 34°35' E 135°26'0 0.0
2018-Jul-14 05:30N 34°35' E 135°26'0 0.0
2018-Jul-14 05:00N 34°35' E 135°26'2 4.1
2018-Jul-14 04:30N 34°36' E 135°24'2 3.8
2018-Jul-14 04:00N 34°36' E 135°22'0 0.1
2018-Jul-14 03:29N 34°36' E 135°22'0 0.1
2018-Jul-14 03:00N 34°36' E 135°22'0 0.0
2018-Jul-14 02:30N 34°36' E 135°22'0 0.0
2018-Jul-14 02:00N 34°36' E 135°22'0 0.0
2018-Jul-14 01:30N 34°36' E 135°22'0 0.0
2018-Jul-14 01:00N 34°36' E 135°22'3 6.3
2018-Jul-14 00:30N 34°34' E 135°18'611.7
2018-Jul-14 00:00N 34°30' E 135°13'611.6
2018-Jul-13 23:30N 34°26' E 135°09'611.9
2018-Jul-13 23:00N 34°22' E 135°04'612.3
2018-Jul-13 22:30N 34°17' E 134°59'612.9
2018-Jul-13 22:00N 34°10' E 134°59'612.6
2018-Jul-13 21:30N 34°04' E 134°59'612.0
2018-Jul-13 21:00N 33°58' E 135°00'611.7
2018-Jul-13 20:30N 33°52' E 135°01'  

Dump ship's entire track history